sensor_id;sensor_type;location;lat;lon;timestamp;P1;durP1;ratioP1;P2;durP2;ratioP2
9459;SDS011;4768;42.664;23.240;2023-03-01T00:01:08;7.43;;;5.70;;
9459;SDS011;4768;42.664;23.240;2023-03-01T00:03:36;6.73;;;5.80;;
9459;SDS011;4768;42.664;23.240;2023-03-01T00:06:04;6.73;;;5.53;;
9459;SDS011;4768;42.664;23.240;2023-03-01T00:08:32;6.47;;;5.33;;
9459;SDS011;4768;42.664;23.240;2023-03-01T00:11:00;6.27;;;5.37;;
9459;SDS011;4768;42.664;23.240;2023-03-01T00:13:28;6.90;;;6.03;;
9459;SDS011;4768;42.664;23.240;2023-03-01T00:15:56;7.43;;;5.67;;
9459;SDS011;4768;42.664;23.240;2023-03-01T00:18:23;7.30;;;5.70;;
9459;SDS011;4768;42.664;23.240;2023-03-01T00:20:51;6.27;;;5.67;;
9459;SDS011;4768;42.664;23.240;2023-03-01T00:23:18;7.60;;;5.43;;
9459;SDS011;4768;42.664;23.240;2023-03-01T00:25:44;6.40;;;5.43;;
9459;SDS011;4768;42.664;23.240;2023-03-01T00:28:11;6.07;;;5.30;;
9459;SDS011;4768;42.664;23.240;2023-03-01T00:30:38;5.47;;;4.97;;
9459;SDS011;4768;42.664;23.240;2023-03-01T00:33:07;6.37;;;4.80;;
9459;SDS011;4768;42.664;23.240;2023-03-01T00:35:34;5.50;;;5.00;;
9459;SDS011;4768;42.664;23.240;2023-03-01T00:38:01;5.80;;;5.20;;
9459;SDS011;4768;42.664;23.240;2023-03-01T00:40:30;6.20;;;5.20;;
9459;SDS011;4768;42.664;23.240;2023-03-01T00:42:58;5.33;;;4.83;;
9459;SDS011;4768;42.664;23.240;2023-03-01T00:45:25;5.03;;;4.63;;
9459;SDS011;4768;42.664;23.240;2023-03-01T00:47:53;4.40;;;3.90;;
9459;SDS011;4768;42.664;23.240;2023-03-01T00:50:21;5.20;;;4.70;;
9459;SDS011;4768;42.664;23.240;2023-03-01T00:52:51;4.93;;;4.43;;
9459;SDS011;4768;42.664;23.240;2023-03-01T00:55:19;4.90;;;4.40;;
9459;SDS011;4768;42.664;23.240;2023-03-01T00:57:45;4.40;;;4.00;;
9459;SDS011;4768;42.664;23.240;2023-03-01T01:00:12;4.93;;;3.70;;
9459;SDS011;4768;42.664;23.240;2023-03-01T01:02:39;4.07;;;3.67;;
9459;SDS011;4768;42.664;23.240;2023-03-01T01:05:06;4.17;;;3.77;;
9459;SDS011;4768;42.664;23.240;2023-03-01T01:07:35;4.60;;;4.20;;
9459;SDS011;4768;42.664;23.240;2023-03-01T01:10:03;4.40;;;4.00;;
9459;SDS011;4768;42.664;23.240;2023-03-01T01:12:32;5.07;;;4.10;;
9459;SDS011;4768;42.664;23.240;2023-03-01T01:14:58;4.47;;;4.07;;
9459;SDS011;4768;42.664;23.240;2023-03-01T01:17:25;4.30;;;3.90;;
9459;SDS011;4768;42.664;23.240;2023-03-01T01:19:52;4.07;;;3.67;;
9459;SDS011;4768;42.664;23.240;2023-03-01T01:22:19;4.03;;;3.70;;
9459;SDS011;4768;42.664;23.240;2023-03-01T01:24:47;4.73;;;4.13;;
9459;SDS011;4768;42.664;23.240;2023-03-01T01:27:13;3.17;;;2.87;;
9459;SDS011;4768;42.664;23.240;2023-03-01T01:29:40;4.00;;;3.60;;
9459;SDS011;4768;42.664;23.240;2023-03-01T01:32:08;3.80;;;3.50;;
9459;SDS011;4768;42.664;23.240;2023-03-01T01:34:34;3.73;;;3.37;;
9459;SDS011;4768;42.664;23.240;2023-03-01T01:37:01;3.57;;;3.27;;
9459;SDS011;4768;42.664;23.240;2023-03-01T01:39:29;3.40;;;3.13;;
9459;SDS011;4768;42.664;23.240;2023-03-01T01:41:57;3.47;;;3.17;;
9459;SDS011;4768;42.664;23.240;2023-03-01T01:44:24;3.20;;;2.90;;
9459;SDS011;4768;42.664;23.240;2023-03-01T01:46:52;3.00;;;2.80;;
9459;SDS011;4768;42.664;23.240;2023-03-01T01:49:25;3.10;;;2.80;;
9459;SDS011;4768;42.664;23.240;2023-03-01T01:51:57;2.90;;;2.70;;
9459;SDS011;4768;42.664;23.240;2023-03-01T01:54:29;3.30;;;3.00;;
9459;SDS011;4768;42.664;23.240;2023-03-01T01:57:05;2.87;;;2.67;;
9459;SDS011;4768;42.664;23.240;2023-03-01T01:59:35;2.87;;;2.67;;
9459;SDS011;4768;42.664;23.240;2023-03-01T02:02:04;3.80;;;2.67;;
9459;SDS011;4768;42.664;23.240;2023-03-01T02:04:31;2.27;;;2.07;;
9459;SDS011;4768;42.664;23.240;2023-03-01T02:07:02;2.47;;;2.27;;
9459;SDS011;4768;42.664;23.240;2023-03-01T02:09:33;2.30;;;2.20;;
9459;SDS011;4768;42.664;23.240;2023-03-01T02:12:01;1.70;;;1.60;;
9459;SDS011;4768;42.664;23.240;2023-03-01T02:14:32;3.10;;;2.43;;
9459;SDS011;4768;42.664;23.240;2023-03-01T02:16:58;2.30;;;2.10;;
9459;SDS011;4768;42.664;23.240;2023-03-01T02:19:31;2.33;;;2.13;;
9459;SDS011;4768;42.664;23.240;2023-03-01T02:22:11;2.30;;;2.10;;
9459;SDS011;4768;42.664;23.240;2023-03-01T02:24:47;2.47;;;2.33;;
9459;SDS011;4768;42.664;23.240;2023-03-01T02:27:24;2.17;;;2.07;;
9459;SDS011;4768;42.664;23.240;2023-03-01T02:29:59;2.17;;;2.07;;
9459;SDS011;4768;42.664;23.240;2023-03-01T02:32:26;2.90;;;2.30;;
9459;SDS011;4768;42.664;23.240;2023-03-01T02:34:53;2.80;;;2.50;;
9459;SDS011;4768;42.664;23.240;2023-03-01T02:37:21;2.60;;;2.40;;
9459;SDS011;4768;42.664;23.240;2023-03-01T02:39:52;2.23;;;2.13;;
9459;SDS011;4768;42.664;23.240;2023-03-01T02:42:26;3.73;;;3.20;;
9459;SDS011;4768;42.664;23.240;2023-03-01T02:44:56;3.30;;;3.00;;
9459;SDS011;4768;42.664;23.240;2023-03-01T02:47:25;2.67;;;2.50;;
9459;SDS011;4768;42.664;23.240;2023-03-01T02:49:51;2.70;;;2.50;;
9459;SDS011;4768;42.664;23.240;2023-03-01T02:52:26;2.63;;;2.43;;
9459;SDS011;4768;42.664;23.240;2023-03-01T02:55:00;3.20;;;2.90;;
9459;SDS011;4768;42.664;23.240;2023-03-01T02:57:31;2.70;;;2.50;;
9459;SDS011;4768;42.664;23.240;2023-03-01T03:00:02;2.93;;;2.73;;
9459;SDS011;4768;42.664;23.240;2023-03-01T03:02:34;3.27;;;3.07;;
9459;SDS011;4768;42.664;23.240;2023-03-01T03:05:06;3.00;;;2.80;;
9459;SDS011;4768;42.664;23.240;2023-03-01T03:07:35;3.70;;;3.40;;
9459;SDS011;4768;42.664;23.240;2023-03-01T03:10:04;3.23;;;2.93;;
9459;SDS011;4768;42.664;23.240;2023-03-01T03:12:33;3.40;;;3.20;;
9459;SDS011;4768;42.664;23.240;2023-03-01T03:15:00;3.70;;;3.40;;
9459;SDS011;4768;42.664;23.240;2023-03-01T03:17:26;4.60;;;4.20;;
9459;SDS011;4768;42.664;23.240;2023-03-01T03:19:54;4.33;;;3.93;;
9459;SDS011;4768;42.664;23.240;2023-03-01T03:22:21;5.53;;;5.03;;
9459;SDS011;4768;42.664;23.240;2023-03-01T03:24:48;7.87;;;5.53;;
9459;SDS011;4768;42.664;23.240;2023-03-01T03:27:15;6.40;;;5.90;;
9459;SDS011;4768;42.664;23.240;2023-03-01T03:29:41;6.07;;;5.47;;
9459;SDS011;4768;42.664;23.240;2023-03-01T03:32:08;6.07;;;5.47;;
9459;SDS011;4768;42.664;23.240;2023-03-01T03:34:35;6.37;;;5.70;;
9459;SDS011;4768;42.664;23.240;2023-03-01T03:37:03;6.73;;;5.63;;
9459;SDS011;4768;42.664;23.240;2023-03-01T03:39:50;4.13;;;3.40;;
9459;SDS011;4768;42.664;23.240;2023-03-01T03:42:19;5.50;;;5.00;;
9459;SDS011;4768;42.664;23.240;2023-03-01T03:44:46;4.73;;;3.90;;
9459;SDS011;4768;42.664;23.240;2023-03-01T03:47:31;5.40;;;4.90;;
9459;SDS011;4768;42.664;23.240;2023-03-01T03:50:15;4.10;;;3.57;;
9459;SDS011;4768;42.664;23.240;2023-03-01T03:52:45;5.70;;;4.83;;
9459;SDS011;4768;42.664;23.240;2023-03-01T03:55:11;5.70;;;5.10;;
9459;SDS011;4768;42.664;23.240;2023-03-01T03:57:39;5.77;;;5.17;;
9459;SDS011;4768;42.664;23.240;2023-03-01T04:00:08;5.27;;;4.57;;
9459;SDS011;4768;42.664;23.240;2023-03-01T04:02:54;5.27;;;4.77;;
9459;SDS011;4768;42.664;23.240;2023-03-01T04:05:21;5.83;;;4.80;;
9459;SDS011;4768;42.664;23.240;2023-03-01T04:07:50;4.67;;;4.10;;
9459;SDS011;4768;42.664;23.240;2023-03-01T04:10:26;5.50;;;4.80;;
9459;SDS011;4768;42.664;23.240;2023-03-01T04:12:53;5.97;;;5.30;;
9459;SDS011;4768;42.664;23.240;2023-03-01T04:15:21;5.77;;;5.10;;
9459;SDS011;4768;42.664;23.240;2023-03-01T04:17:49;7.47;;;4.23;;
9459;SDS011;4768;42.664;23.240;2023-03-01T04:20:18;3.60;;;2.97;;
9459;SDS011;4768;42.664;23.240;2023-03-01T04:22:52;4.57;;;4.17;;
9459;SDS011;4768;42.664;23.240;2023-03-01T04:25:22;3.93;;;3.53;;
9459;SDS011;4768;42.664;23.240;2023-03-01T04:27:50;4.27;;;3.83;;
9459;SDS011;4768;42.664;23.240;2023-03-01T04:30:16;4.40;;;4.00;;
9459;SDS011;4768;42.664;23.240;2023-03-01T04:32:43;4.00;;;3.60;;
9459;SDS011;4768;42.664;23.240;2023-03-01T04:35:10;5.77;;;4.33;;
9459;SDS011;4768;42.664;23.240;2023-03-01T04:37:37;4.80;;;4.40;;
9459;SDS011;4768;42.664;23.240;2023-03-01T04:40:09;4.37;;;3.20;;
9459;SDS011;4768;42.664;23.240;2023-03-01T04:42:41;4.77;;;4.07;;
9459;SDS011;4768;42.664;23.240;2023-03-01T04:45:08;4.93;;;3.97;;
9459;SDS011;4768;42.664;23.240;2023-03-01T04:47:38;4.77;;;4.23;;
9459;SDS011;4768;42.664;23.240;2023-03-01T04:50:06;4.90;;;3.67;;
9459;SDS011;4768;42.664;23.240;2023-03-01T04:52:34;5.47;;;4.80;;
9459;SDS011;4768;42.664;23.240;2023-03-01T04:55:01;6.30;;;4.70;;
9459;SDS011;4768;42.664;23.240;2023-03-01T04:57:30;3.67;;;3.27;;
9459;SDS011;4768;42.664;23.240;2023-03-01T04:59:58;6.27;;;4.57;;
9459;SDS011;4768;42.664;23.240;2023-03-01T05:02:24;6.17;;;4.97;;
9459;SDS011;4768;42.664;23.240;2023-03-01T05:04:51;5.10;;;4.60;;
9459;SDS011;4768;42.664;23.240;2023-03-01T05:07:22;6.53;;;4.77;;
9459;SDS011;4768;42.664;23.240;2023-03-01T05:09:49;4.93;;;4.37;;
9459;SDS011;4768;42.664;23.240;2023-03-01T05:12:16;6.53;;;4.73;;
9459;SDS011;4768;42.664;23.240;2023-03-01T05:14:44;5.10;;;4.13;;
9459;SDS011;4768;42.664;23.240;2023-03-01T05:17:11;7.40;;;3.50;;
9459;SDS011;4768;42.664;23.240;2023-03-01T05:19:38;4.67;;;3.63;;
9459;SDS011;4768;42.664;23.240;2023-03-01T05:22:07;5.10;;;4.60;;
9459;SDS011;4768;42.664;23.240;2023-03-01T05:24:35;5.03;;;4.00;;
9459;SDS011;4768;42.664;23.240;2023-03-01T05:27:03;4.67;;;4.07;;
9459;SDS011;4768;42.664;23.240;2023-03-01T05:29:31;5.87;;;4.00;;
9459;SDS011;4768;42.664;23.240;2023-03-01T05:32:01;5.07;;;3.30;;
9459;SDS011;4768;42.664;23.240;2023-03-01T05:34:29;3.13;;;2.70;;
9459;SDS011;4768;42.664;23.240;2023-03-01T05:36:58;3.60;;;3.27;;
9459;SDS011;4768;42.664;23.240;2023-03-01T05:39:26;6.60;;;4.40;;
9459;SDS011;4768;42.664;23.240;2023-03-01T05:41:54;3.83;;;3.33;;
9459;SDS011;4768;42.664;23.240;2023-03-01T05:44:22;4.70;;;3.37;;
9459;SDS011;4768;42.664;23.240;2023-03-01T05:46:49;6.63;;;3.63;;
9459;SDS011;4768;42.664;23.240;2023-03-01T05:49:18;6.07;;;4.90;;
9459;SDS011;4768;42.664;23.240;2023-03-01T05:51:47;4.43;;;3.97;;
9459;SDS011;4768;42.664;23.240;2023-03-01T05:54:15;6.17;;;3.80;;
9459;SDS011;4768;42.664;23.240;2023-03-01T05:56:42;6.07;;;3.37;;
9459;SDS011;4768;42.664;23.240;2023-03-01T05:59:09;4.93;;;3.70;;
9459;SDS011;4768;42.664;23.240;2023-03-01T06:01:36;8.17;;;5.90;;
9459;SDS011;4768;42.664;23.240;2023-03-01T06:04:02;6.03;;;4.17;;
9459;SDS011;4768;42.664;23.240;2023-03-01T06:06:32;5.03;;;3.63;;
9459;SDS011;4768;42.664;23.240;2023-03-01T06:09:00;4.73;;;3.73;;
9459;SDS011;4768;42.664;23.240;2023-03-01T06:11:26;4.10;;;3.30;;
9459;SDS011;4768;42.664;23.240;2023-03-01T06:13:53;3.57;;;3.27;;
9459;SDS011;4768;42.664;23.240;2023-03-01T06:16:20;4.10;;;2.90;;
9459;SDS011;4768;42.664;23.240;2023-03-01T06:18:46;4.57;;;3.50;;
9459;SDS011;4768;42.664;23.240;2023-03-01T06:21:13;2.93;;;2.57;;
9459;SDS011;4768;42.664;23.240;2023-03-01T06:23:41;3.50;;;3.00;;
9459;SDS011;4768;42.664;23.240;2023-03-01T06:26:08;3.90;;;2.70;;
9459;SDS011;4768;42.664;23.240;2023-03-01T06:28:35;5.33;;;3.33;;
9459;SDS011;4768;42.664;23.240;2023-03-01T06:31:02;5.63;;;3.97;;
9459;SDS011;4768;42.664;23.240;2023-03-01T06:33:29;5.53;;;3.43;;
9459;SDS011;4768;42.664;23.240;2023-03-01T06:35:56;4.77;;;4.13;;
9459;SDS011;4768;42.664;23.240;2023-03-01T06:38:23;5.10;;;4.10;;
9459;SDS011;4768;42.664;23.240;2023-03-01T06:40:54;3.13;;;2.83;;
9459;SDS011;4768;42.664;23.240;2023-03-01T06:43:22;5.07;;;3.73;;
9459;SDS011;4768;42.664;23.240;2023-03-01T06:45:49;6.80;;;4.00;;
9459;SDS011;4768;42.664;23.240;2023-03-01T06:48:16;4.17;;;3.60;;
9459;SDS011;4768;42.664;23.240;2023-03-01T06:50:43;7.20;;;4.50;;
9459;SDS011;4768;42.664;23.240;2023-03-01T06:53:10;5.37;;;4.87;;
9459;SDS011;4768;42.664;23.240;2023-03-01T06:55:37;6.07;;;3.67;;
9459;SDS011;4768;42.664;23.240;2023-03-01T06:58:05;4.30;;;3.77;;
9459;SDS011;4768;42.664;23.240;2023-03-01T07:00:32;4.83;;;3.20;;
9459;SDS011;4768;42.664;23.240;2023-03-01T07:02:59;4.23;;;3.13;;
9459;SDS011;4768;42.664;23.240;2023-03-01T07:05:27;5.47;;;4.20;;
9459;SDS011;4768;42.664;23.240;2023-03-01T07:07:54;4.83;;;4.10;;
9459;SDS011;4768;42.664;23.240;2023-03-01T07:10:21;3.40;;;2.80;;
9459;SDS011;4768;42.664;23.240;2023-03-01T07:12:48;4.40;;;3.50;;
9459;SDS011;4768;42.664;23.240;2023-03-01T07:15:16;3.13;;;2.70;;
9459;SDS011;4768;42.664;23.240;2023-03-01T07:17:43;3.20;;;2.80;;
9459;SDS011;4768;42.664;23.240;2023-03-01T07:20:12;4.57;;;3.80;;
9459;SDS011;4768;42.664;23.240;2023-03-01T07:22:40;5.00;;;3.57;;
9459;SDS011;4768;42.664;23.240;2023-03-01T07:25:08;5.47;;;3.30;;
9459;SDS011;4768;42.664;23.240;2023-03-01T07:27:35;3.67;;;2.93;;
9459;SDS011;4768;42.664;23.240;2023-03-01T07:30:02;10.23;;;6.37;;
9459;SDS011;4768;42.664;23.240;2023-03-01T07:32:31;4.33;;;3.00;;
9459;SDS011;4768;42.664;23.240;2023-03-01T07:34:57;4.17;;;3.37;;
9459;SDS011;4768;42.664;23.240;2023-03-01T07:37:24;7.07;;;4.90;;
9459;SDS011;4768;42.664;23.240;2023-03-01T07:39:51;5.13;;;4.53;;
9459;SDS011;4768;42.664;23.240;2023-03-01T07:42:17;5.60;;;4.10;;
9459;SDS011;4768;42.664;23.240;2023-03-01T07:44:44;11.90;;;5.23;;
9459;SDS011;4768;42.664;23.240;2023-03-01T07:47:11;6.87;;;3.97;;
9459;SDS011;4768;42.664;23.240;2023-03-01T07:49:39;6.93;;;4.33;;
9459;SDS011;4768;42.664;23.240;2023-03-01T07:52:06;7.23;;;4.50;;
9459;SDS011;4768;42.664;23.240;2023-03-01T07:54:33;4.20;;;3.80;;
9459;SDS011;4768;42.664;23.240;2023-03-01T07:56:59;4.73;;;3.40;;
9459;SDS011;4768;42.664;23.240;2023-03-01T07:59:26;4.53;;;3.60;;
9459;SDS011;4768;42.664;23.240;2023-03-01T08:01:54;4.63;;;3.00;;
9459;SDS011;4768;42.664;23.240;2023-03-01T08:04:21;4.13;;;3.57;;
9459;SDS011;4768;42.664;23.240;2023-03-01T08:06:51;7.83;;;3.17;;
9459;SDS011;4768;42.664;23.240;2023-03-01T08:09:18;6.70;;;3.00;;
9459;SDS011;4768;42.664;23.240;2023-03-01T08:11:45;7.40;;;3.57;;
9459;SDS011;4768;42.664;23.240;2023-03-01T08:14:12;3.37;;;3.00;;
9459;SDS011;4768;42.664;23.240;2023-03-01T08:16:38;5.50;;;2.90;;
9459;SDS011;4768;42.664;23.240;2023-03-01T08:19:05;8.70;;;4.33;;
9459;SDS011;4768;42.664;23.240;2023-03-01T08:21:32;4.10;;;3.70;;
9459;SDS011;4768;42.664;23.240;2023-03-01T08:24:02;3.50;;;3.20;;
9459;SDS011;4768;42.664;23.240;2023-03-01T08:26:29;2.90;;;2.50;;
9459;SDS011;4768;42.664;23.240;2023-03-01T08:28:56;3.17;;;2.70;;
9459;SDS011;4768;42.664;23.240;2023-03-01T08:31:23;3.43;;;3.13;;
9459;SDS011;4768;42.664;23.240;2023-03-01T08:33:53;3.90;;;3.50;;
9459;SDS011;4768;42.664;23.240;2023-03-01T08:36:21;5.33;;;4.33;;
9459;SDS011;4768;42.664;23.240;2023-03-01T08:38:48;5.70;;;5.20;;
9459;SDS011;4768;42.664;23.240;2023-03-01T08:41:17;8.43;;;5.90;;
9459;SDS011;4768;42.664;23.240;2023-03-01T08:43:44;6.77;;;6.17;;
9459;SDS011;4768;42.664;23.240;2023-03-01T08:46:11;7.73;;;5.97;;
9459;SDS011;4768;42.664;23.240;2023-03-01T08:48:38;11.47;;;5.80;;
9459;SDS011;4768;42.664;23.240;2023-03-01T08:51:08;5.60;;;5.10;;
9459;SDS011;4768;42.664;23.240;2023-03-01T08:53:36;5.30;;;4.07;;
9459;SDS011;4768;42.664;23.240;2023-03-01T08:56:03;4.50;;;3.60;;
9459;SDS011;4768;42.664;23.240;2023-03-01T08:58:32;5.30;;;4.10;;
9459;SDS011;4768;42.664;23.240;2023-03-01T09:00:59;5.97;;;5.17;;
9459;SDS011;4768;42.664;23.240;2023-03-01T09:03:26;4.30;;;3.90;;
9459;SDS011;4768;42.664;23.240;2023-03-01T09:05:53;4.90;;;3.70;;
9459;SDS011;4768;42.664;23.240;2023-03-01T09:08:26;12.77;;;9.33;;
9459;SDS011;4768;42.664;23.240;2023-03-01T09:10:53;5.63;;;3.97;;
9459;SDS011;4768;42.664;23.240;2023-03-01T09:13:20;9.43;;;7.77;;
9459;SDS011;4768;42.664;23.240;2023-03-01T09:15:50;3.70;;;3.40;;
9459;SDS011;4768;42.664;23.240;2023-03-01T09:18:17;8.87;;;5.80;;
9459;SDS011;4768;42.664;23.240;2023-03-01T09:20:43;7.03;;;3.37;;
9459;SDS011;4768;42.664;23.240;2023-03-01T09:23:10;9.40;;;5.00;;
9459;SDS011;4768;42.664;23.240;2023-03-01T09:25:37;4.10;;;3.43;;
9459;SDS011;4768;42.664;23.240;2023-03-01T09:28:04;10.27;;;8.10;;
9459;SDS011;4768;42.664;23.240;2023-03-01T09:30:30;6.53;;;5.80;;
9459;SDS011;4768;42.664;23.240;2023-03-01T09:32:59;4.60;;;4.20;;
9459;SDS011;4768;42.664;23.240;2023-03-01T09:35:25;4.60;;;4.10;;
9459;SDS011;4768;42.664;23.240;2023-03-01T09:37:53;5.63;;;4.10;;
9459;SDS011;4768;42.664;23.240;2023-03-01T09:40:20;10.30;;;6.37;;
9459;SDS011;4768;42.664;23.240;2023-03-01T09:42:51;9.13;;;6.07;;
9459;SDS011;4768;42.664;23.240;2023-03-01T09:45:29;5.20;;;4.63;;
9459;SDS011;4768;42.664;23.240;2023-03-01T09:48:02;8.60;;;5.87;;
9459;SDS011;4768;42.664;23.240;2023-03-01T09:50:35;5.70;;;4.60;;
9459;SDS011;4768;42.664;23.240;2023-03-01T09:53:09;6.97;;;4.90;;
9459;SDS011;4768;42.664;23.240;2023-03-01T09:55:42;4.53;;;3.37;;
9459;SDS011;4768;42.664;23.240;2023-03-01T10:01:27;7.83;;;6.33;;
9459;SDS011;4768;42.664;23.240;2023-03-01T10:04:05;5.20;;;4.30;;
9459;SDS011;4768;42.664;23.240;2023-03-01T10:06:56;4.43;;;3.17;;
9459;SDS011;4768;42.664;23.240;2023-03-01T10:09:32;3.93;;;3.53;;
9459;SDS011;4768;42.664;23.240;2023-03-01T10:12:00;2.90;;;2.70;;
9459;SDS011;4768;42.664;23.240;2023-03-01T10:14:32;4.13;;;3.73;;
9459;SDS011;4768;42.664;23.240;2023-03-01T10:17:03;4.17;;;3.73;;
9459;SDS011;4768;42.664;23.240;2023-03-01T10:19:38;5.87;;;4.30;;
9459;SDS011;4768;42.664;23.240;2023-03-01T10:22:11;5.63;;;3.40;;
9459;SDS011;4768;42.664;23.240;2023-03-01T10:24:42;3.53;;;2.90;;
9459;SDS011;4768;42.664;23.240;2023-03-01T10:27:12;3.17;;;2.87;;
9459;SDS011;4768;42.664;23.240;2023-03-01T10:29:47;5.83;;;3.53;;
9459;SDS011;4768;42.664;23.240;2023-03-01T10:32:18;4.10;;;3.70;;
9459;SDS011;4768;42.664;23.240;2023-03-01T10:34:48;6.03;;;3.87;;
9459;SDS011;4768;42.664;23.240;2023-03-01T10:37:15;3.33;;;3.00;;
9459;SDS011;4768;42.664;23.240;2023-03-01T10:39:56;3.43;;;2.80;;
9459;SDS011;4768;42.664;23.240;2023-03-01T10:42:28;4.53;;;3.43;;
9459;SDS011;4768;42.664;23.240;2023-03-01T10:44:57;4.97;;;4.00;;
9459;SDS011;4768;42.664;23.240;2023-03-01T10:47:25;9.10;;;5.50;;
9459;SDS011;4768;42.664;23.240;2023-03-01T10:49:56;4.97;;;3.93;;
9459;SDS011;4768;42.664;23.240;2023-03-01T10:52:25;6.07;;;4.77;;
9459;SDS011;4768;42.664;23.240;2023-03-01T10:55:03;4.23;;;3.63;;
9459;SDS011;4768;42.664;23.240;2023-03-01T10:57:50;5.23;;;4.20;;
9459;SDS011;4768;42.664;23.240;2023-03-01T11:00:33;11.03;;;5.70;;
9459;SDS011;4768;42.664;23.240;2023-03-01T11:03:15;4.13;;;3.73;;
9459;SDS011;4768;42.664;23.240;2023-03-01T11:08:47;6.90;;;5.63;;
9459;SDS011;4768;42.664;23.240;2023-03-01T11:11:20;7.07;;;5.73;;
9459;SDS011;4768;42.664;23.240;2023-03-01T11:13:53;5.67;;;4.80;;
9459;SDS011;4768;42.664;23.240;2023-03-01T11:16:27;5.03;;;4.13;;
9459;SDS011;4768;42.664;23.240;2023-03-01T11:18:58;4.70;;;4.27;;
9459;SDS011;4768;42.664;23.240;2023-03-01T11:21:29;15.37;;;10.77;;
9459;SDS011;4768;42.664;23.240;2023-03-01T11:24:00;22.97;;;14.43;;
9459;SDS011;4768;42.664;23.240;2023-03-01T11:26:29;20.97;;;12.30;;
9459;SDS011;4768;42.664;23.240;2023-03-01T11:29:04;8.30;;;6.27;;
9459;SDS011;4768;42.664;23.240;2023-03-01T11:31:37;19.73;;;10.03;;
9459;SDS011;4768;42.664;23.240;2023-03-01T11:34:09;7.97;;;5.63;;
9459;SDS011;4768;42.664;23.240;2023-03-01T11:36:42;6.57;;;4.50;;
9459;SDS011;4768;42.664;23.240;2023-03-01T11:39:17;8.07;;;6.00;;
9459;SDS011;4768;42.664;23.240;2023-03-01T11:41:48;7.77;;;5.60;;
9459;SDS011;4768;42.664;23.240;2023-03-01T11:44:28;4.27;;;3.87;;
9459;SDS011;4768;42.664;23.240;2023-03-01T11:47:07;9.40;;;4.80;;
9459;SDS011;4768;42.664;23.240;2023-03-01T11:50:12;11.33;;;5.90;;
9459;SDS011;4768;42.664;23.240;2023-03-01T11:52:51;5.53;;;3.57;;
9459;SDS011;4768;42.664;23.240;2023-03-01T11:55:30;6.43;;;5.83;;
9459;SDS011;4768;42.664;23.240;2023-03-01T11:58:21;6.40;;;5.13;;
9459;SDS011;4768;42.664;23.240;2023-03-01T12:01:23;6.47;;;5.53;;
9459;SDS011;4768;42.664;23.240;2023-03-01T12:04:02;11.07;;;7.47;;
9459;SDS011;4768;42.664;23.240;2023-03-01T12:06:48;7.33;;;5.27;;
9459;SDS011;4768;42.664;23.240;2023-03-01T12:09:25;8.47;;;6.43;;
9459;SDS011;4768;42.664;23.240;2023-03-01T12:12:07;15.27;;;11.83;;
9459;SDS011;4768;42.664;23.240;2023-03-01T12:14:51;5.37;;;4.67;;
9459;SDS011;4768;42.664;23.240;2023-03-01T12:17:32;10.20;;;6.80;;
9459;SDS011;4768;42.664;23.240;2023-03-01T12:20:20;7.57;;;6.07;;
9459;SDS011;4768;42.664;23.240;2023-03-01T12:22:59;9.47;;;6.80;;
9459;SDS011;4768;42.664;23.240;2023-03-01T12:25:45;7.87;;;5.87;;
9459;SDS011;4768;42.664;23.240;2023-03-01T12:34:26;7.83;;;5.70;;
9459;SDS011;4768;42.664;23.240;2023-03-01T12:37:11;7.33;;;5.40;;
9459;SDS011;4768;42.664;23.240;2023-03-01T12:39:50;9.40;;;6.60;;
9459;SDS011;4768;42.664;23.240;2023-03-01T12:42:30;6.13;;;5.53;;
9459;SDS011;4768;42.664;23.240;2023-03-01T12:45:14;8.13;;;6.03;;
9459;SDS011;4768;42.664;23.240;2023-03-01T12:48:04;7.10;;;6.40;;
9459;SDS011;4768;42.664;23.240;2023-03-01T12:50:42;6.43;;;5.03;;
9459;SDS011;4768;42.664;23.240;2023-03-01T12:53:16;5.67;;;5.10;;
9459;SDS011;4768;42.664;23.240;2023-03-01T12:55:49;6.37;;;5.00;;
9459;SDS011;4768;42.664;23.240;2023-03-01T12:58:23;5.83;;;5.10;;
9459;SDS011;4768;42.664;23.240;2023-03-01T13:01:00;5.23;;;4.60;;
9459;SDS011;4768;42.664;23.240;2023-03-01T13:03:43;8.97;;;6.90;;
9459;SDS011;4768;42.664;23.240;2023-03-01T13:06:28;5.40;;;4.77;;
9459;SDS011;4768;42.664;23.240;2023-03-01T13:09:04;6.87;;;5.17;;
9459;SDS011;4768;42.664;23.240;2023-03-01T13:11:35;6.93;;;6.17;;
9459;SDS011;4768;42.664;23.240;2023-03-01T13:19:59;6.43;;;5.83;;
9459;SDS011;4768;42.664;23.240;2023-03-01T13:22:27;5.60;;;5.00;;
9459;SDS011;4768;42.664;23.240;2023-03-01T13:25:10;8.40;;;5.97;;
9459;SDS011;4768;42.664;23.240;2023-03-01T13:27:40;5.27;;;4.77;;
9459;SDS011;4768;42.664;23.240;2023-03-01T13:30:38;6.20;;;5.40;;
9459;SDS011;4768;42.664;23.240;2023-03-01T13:36:13;5.80;;;4.73;;
9459;SDS011;4768;42.664;23.240;2023-03-01T13:39:29;4.70;;;4.20;;
9459;SDS011;4768;42.664;23.240;2023-03-01T13:42:00;5.00;;;4.50;;
9459;SDS011;4768;42.664;23.240;2023-03-01T13:44:29;4.37;;;3.90;;
9459;SDS011;4768;42.664;23.240;2023-03-01T13:47:01;7.93;;;6.13;;
9459;SDS011;4768;42.664;23.240;2023-03-01T13:49:35;6.17;;;5.57;;
9459;SDS011;4768;42.664;23.240;2023-03-01T13:52:15;5.63;;;5.13;;
9459;SDS011;4768;42.664;23.240;2023-03-01T13:54:57;4.97;;;4.47;;
9459;SDS011;4768;42.664;23.240;2023-03-01T13:57:34;6.27;;;5.50;;
9459;SDS011;4768;42.664;23.240;2023-03-01T14:00:04;5.63;;;4.57;;
9459;SDS011;4768;42.664;23.240;2023-03-01T14:02:33;6.07;;;4.83;;
9459;SDS011;4768;42.664;23.240;2023-03-01T14:05:01;5.10;;;4.57;;
9459;SDS011;4768;42.664;23.240;2023-03-01T14:07:27;5.30;;;4.53;;
9459;SDS011;4768;42.664;23.240;2023-03-01T14:09:56;4.20;;;3.67;;
9459;SDS011;4768;42.664;23.240;2023-03-01T14:12:33;4.17;;;3.60;;
9459;SDS011;4768;42.664;23.240;2023-03-01T14:15:14;4.63;;;3.93;;
9459;SDS011;4768;42.664;23.240;2023-03-01T14:20:38;6.27;;;4.70;;
9459;SDS011;4768;42.664;23.240;2023-03-01T14:23:09;7.10;;;4.57;;
9459;SDS011;4768;42.664;23.240;2023-03-01T14:25:39;5.37;;;4.83;;
9459;SDS011;4768;42.664;23.240;2023-03-01T14:28:14;8.77;;;4.93;;
9459;SDS011;4768;42.664;23.240;2023-03-01T14:30:43;7.00;;;5.80;;
9459;SDS011;4768;42.664;23.240;2023-03-01T14:33:20;5.37;;;4.67;;
9459;SDS011;4768;42.664;23.240;2023-03-01T14:35:52;7.60;;;5.20;;
9459;SDS011;4768;42.664;23.240;2023-03-01T14:38:23;8.13;;;4.70;;
9459;SDS011;4768;42.664;23.240;2023-03-01T14:40:56;5.63;;;4.80;;
9459;SDS011;4768;42.664;23.240;2023-03-01T14:43:26;5.20;;;4.70;;
9459;SDS011;4768;42.664;23.240;2023-03-01T14:45:55;4.43;;;4.03;;
9459;SDS011;4768;42.664;23.240;2023-03-01T14:48:23;7.27;;;5.00;;
9459;SDS011;4768;42.664;23.240;2023-03-01T14:50:51;11.50;;;5.30;;
9459;SDS011;4768;42.664;23.240;2023-03-01T14:53:19;6.93;;;5.50;;
9459;SDS011;4768;42.664;23.240;2023-03-01T14:55:49;8.90;;;5.60;;
9459;SDS011;4768;42.664;23.240;2023-03-01T14:58:19;8.97;;;5.17;;
9459;SDS011;4768;42.664;23.240;2023-03-01T15:00:50;10.03;;;7.27;;
9459;SDS011;4768;42.664;23.240;2023-03-01T15:03:21;6.93;;;4.90;;
9459;SDS011;4768;42.664;23.240;2023-03-01T15:05:53;5.97;;;4.40;;
9459;SDS011;4768;42.664;23.240;2023-03-01T15:08:21;7.70;;;4.60;;
9459;SDS011;4768;42.664;23.240;2023-03-01T15:10:58;11.03;;;6.57;;
9459;SDS011;4768;42.664;23.240;2023-03-01T15:13:29;6.03;;;5.27;;
9459;SDS011;4768;42.664;23.240;2023-03-01T15:18:45;7.17;;;5.80;;
9459;SDS011;4768;42.664;23.240;2023-03-01T15:21:16;6.03;;;5.13;;
9459;SDS011;4768;42.664;23.240;2023-03-01T15:23:48;8.63;;;5.03;;
9459;SDS011;4768;42.664;23.240;2023-03-01T15:26:23;8.63;;;5.23;;
9459;SDS011;4768;42.664;23.240;2023-03-01T15:28:52;6.73;;;4.93;;
9459;SDS011;4768;42.664;23.240;2023-03-01T15:31:23;7.67;;;6.10;;
9459;SDS011;4768;42.664;23.240;2023-03-01T15:33:53;9.90;;;6.67;;
9459;SDS011;4768;42.664;23.240;2023-03-01T15:36:41;9.30;;;5.40;;
9459;SDS011;4768;42.664;23.240;2023-03-01T15:42:02;11.23;;;8.83;;
9459;SDS011;4768;42.664;23.240;2023-03-01T15:44:31;8.57;;;6.37;;
9459;SDS011;4768;42.664;23.240;2023-03-01T15:46:59;6.80;;;5.53;;
9459;SDS011;4768;42.664;23.240;2023-03-01T15:49:35;7.47;;;5.83;;
9459;SDS011;4768;42.664;23.240;2023-03-01T15:52:05;9.43;;;6.50;;